Time,TemperatureF,DewpointF,PressureIn,WindDirection,WindDirectionDegrees,WindSpeedMPH,WindSpeedGustMPH,Humidity,HourlyPrecipIn,Conditions,Clouds,dailyrainin,SoftwareType,DateUTC
2013-01-05 00:04:00,24.3,20.5,30.33,SW,217,1.0,8.0,85,0.00,,,0.00,meteohub,2013-01-05 06:04:00,
2013-01-05 00:09:00,24.3,20.5,30.33,SW,218,5.0,8.0,85,0.00,,,0.00,meteohub,2013-01-05 06:09:00,
2013-01-05 00:14:00,24.4,20.7,30.33,SW,229,4.0,8.0,85,0.00,,,0.00,meteohub,2013-01-05 06:14:00,
2013-01-05 00:20:00,24.4,20.7,30.33,SSW,195,5.0,8.0,85,0.00,,,0.00,meteohub,2013-01-05 06:20:00,
2013-01-05 00:25:00,24.4,20.7,30.33,SSW,211,4.0,8.0,85,0.00,,,0.00,meteohub,2013-01-05 06:25:00,
2013-01-05 00:30:00,24.4,20.7,30.33,SSW,211,4.0,6.0,85,0.00,,,0.00,meteohub,2013-01-05 06:30:00,
2013-01-05 00:35:00,24.4,20.7,30.33,SW,230,1.0,6.0,85,0.00,,,0.00,meteohub,2013-01-05 06:35:00,
2013-01-05 00:40:00,24.4,20.7,30.33,SW,217,5.0,6.0,85,0.00,,,0.00,meteohub,2013-01-05 06:40:00,
2013-01-05 00:45:00,24.4,20.7,30.33,SW,222,0.0,7.0,85,0.00,,,0.00,meteohub,2013-01-05 06:45:00,
2013-01-05 00:50:00,24.3,20.5,30.33,SW,222,0.0,7.0,85,0.00,,,0.00,meteohub,2013-01-05 06:50:00,
2013-01-05 00:55:00,24.1,20.3,30.33,SW,220,4.0,7.0,85,0.00,,,0.00,meteohub,2013-01-05 06:55:00,
2013-01-05 01:00:00,24.1,20.3,30.33,SW,223,3.0,6.0,85,0.00,,,0.00,meteohub,2013-01-05 07:00:00,
2013-01-05 01:05:00,23.7,19.9,30.33,SW,229,4.0,6.0,85,0.00,,,0.00,meteohub,2013-01-05 07:05:00,
2013-01-05 01:11:00,23.7,19.9,30.33,SW,236,1.0,5.0,85,0.00,,,0.00,meteohub,2013-01-05 07:11:00,
2013-01-05 01:16:00,23.7,20.1,30.33,SW,215,1.0,5.0,86,0.00,,,0.00,meteohub,2013-01-05 07:16:00,
2013-01-05 01:21:00,23.5,19.8,30.33,SSW,208,1.0,5.0,85,0.00,,,0.00,meteohub,2013-01-05 07:21:00,
2013-01-05 01:26:00,23.5,19.9,30.33,WSW,237,2.0,5.0,86,0.00,,,0.00,meteohub,2013-01-05 07:26:00,
2013-01-05 01:31:00,23.4,19.8,30.33,SW,226,2.0,4.0,86,0.00,,,0.00,meteohub,2013-01-05 07:31:00,
2013-01-05 01:36:00,23.4,19.8,30.33,SSW,212,4.0,4.0,86,0.00,,,0.00,meteohub,2013-01-05 07:36:00,
2013-01-05 01:41:00,23.4,19.8,30.33,SW,219,1.0,4.0,86,0.00,,,0.00,meteohub,2013-01-05 07:41:00,
2013-01-05 01:46:00,23.4,19.8,30.33,SW,227,2.0,5.0,86,0.00,,,0.00,meteohub,2013-01-05 07:46:00,
2013-01-05 01:51:00,23.2,19.6,30.33,SW,215,1.0,5.0,86,0.00,,,0.00,meteohub,2013-01-05 07:51:00,
2013-01-05 01:56:00,23.2,19.6,30.34,SW,219,2.0,5.0,86,0.00,,,0.00,meteohub,2013-01-05 07:56:00,
2013-01-05 02:01:00,23.0,19.4,30.33,SW,220,1.0,4.0,86,0.00,,,0.00,meteohub,2013-01-05 08:01:00,
2013-01-05 02:06:00,22.8,19.2,30.33,SW,221,0.0,4.0,86,0.00,,,0.00,meteohub,2013-01-05 08:06:00,
2013-01-05 02:11:00,22.6,19.0,30.33,SW,221,0.0,4.0,86,0.00,,,0.00,meteohub,2013-01-05 08:11:00,
2013-01-05 02:16:00,22.6,19.4,30.33,SSW,211,0.0,1.0,87,0.00,,,0.00,meteohub,2013-01-05 08:16:00,
2013-01-05 02:21:00,22.6,19.4,30.33,SSW,211,0.0,2.0,87,0.00,,,0.00,meteohub,2013-01-05 08:21:00,
2013-01-05 02:27:00,22.5,19.2,30.33,SSW,211,0.0,2.0,87,0.00,,,0.00,meteohub,2013-01-05 08:27:00,
2013-01-05 02:32:00,22.5,19.2,30.33,SSW,211,0.0,1.0,87,0.00,,,0.00,meteohub,2013-01-05 08:32:00,
2013-01-05 02:37:00,22.3,19.0,30.33,SSW,211,0.0,0.0,87,0.00,,,0.00,meteohub,2013-01-05 08:37:00,
2013-01-05 02:42:00,22.1,18.9,30.33,SSW,211,0.0,0.0,87,0.00,,,0.00,meteohub,2013-01-05 08:42:00,
2013-01-05 02:47:00,22.1,19.0,30.33,SSW,211,0.0,1.0,88,0.00,,,0.00,meteohub,2013-01-05 08:47:00,
2013-01-05 02:52:00,22.1,19.0,30.33,SSW,211,0.0,1.0,88,0.00,,,0.00,meteohub,2013-01-05 08:52:00,
2013-01-05 02:57:00,21.9,18.7,30.33,SSW,211,0.0,1.0,87,0.00,,,0.00,meteohub,2013-01-05 08:57:00,
2013-01-05 03:02:00,21.7,18.5,30.33,SSW,211,0.0,1.0,87,0.00,,,0.00,meteohub,2013-01-05 09:02:00,
2013-01-05 03:07:00,21.7,18.7,30.33,SSW,211,0.0,0.0,88,0.00,,,0.00,meteohub,2013-01-05 09:07:00,
2013-01-05 03:12:00,21.6,18.5,30.33,SSW,211,0.0,0.0,88,0.00,,,0.00,meteohub,2013-01-05 09:12:00,
2013-01-05 03:17:00,21.6,18.5,30.32,SSW,211,0.0,0.0,88,0.00,,,0.00,meteohub,2013-01-05 09:17:00,
2013-01-05 03:22:00,21.4,18.7,30.32,SSW,211,0.0,0.0,89,0.00,,,0.00,meteohub,2013-01-05 09:22:00,
2013-01-05 03:27:00,21.4,18.7,30.33,SSW,211,0.0,0.0,89,0.00,,,0.00,meteohub,2013-01-05 09:27:00,
2013-01-05 03:32:00,21.6,18.9,30.33,SSW,210,1.0,0.0,89,0.00,,,0.00,meteohub,2013-01-05 09:32:00,
2013-01-05 03:37:00,21.9,19.4,30.33,SW,214,3.0,3.0,90,0.00,,,0.00,meteohub,2013-01-05 09:37:00,
2013-01-05 03:42:00,22.1,19.4,30.33,SSW,213,0.0,3.0,89,0.00,,,0.00,meteohub,2013-01-05 09:42:00,
2013-01-05 03:47:00,22.1,19.4,30.33,SSW,213,0.0,3.0,89,0.00,,,0.00,meteohub,2013-01-05 09:47:00,
2013-01-05 03:52:00,21.9,18.9,30.32,SSW,213,0.0,3.0,88,0.00,,,0.00,meteohub,2013-01-05 09:52:00,
2013-01-05 03:57:00,21.9,18.9,30.32,SSW,213,0.0,0.0,88,0.00,,,0.00,meteohub,2013-01-05 09:57:00,
2013-01-05 04:02:00,21.6,18.5,30.32,SSW,213,0.0,0.0,88,0.00,,,0.00,meteohub,2013-01-05 10:02:00,
2013-01-05 04:07:00,21.4,18.3,30.32,SSW,213,0.0,0.0,88,0.00,,,0.00,meteohub,2013-01-05 10:07:00,
2013-01-05 04:12:00,21.4,18.7,30.32,SSW,213,0.0,0.0,89,0.00,,,0.00,meteohub,2013-01-05 10:12:00,
2013-01-05 04:17:00,21.2,18.5,30.32,SSW,213,0.0,0.0,89,0.00,,,0.00,meteohub,2013-01-05 10:17:00,
2013-01-05 04:22:00,21.0,18.3,30.32,SSW,213,0.0,0.0,89,0.00,,,0.00,meteohub,2013-01-05 10:22:00,
2013-01-05 04:27:00,21.2,18.7,30.31,SSW,213,0.0,0.0,90,0.00,,,0.00,meteohub,2013-01-05 10:27:00,
2013-01-05 04:32:00,21.2,18.7,30.31,SSW,213,0.0,0.0,90,0.00,,,0.00,meteohub,2013-01-05 10:32:00,
2013-01-05 04:37:00,21.0,18.5,30.31,SSW,213,0.0,0.0,90,0.00,,,0.00,meteohub,2013-01-05 10:37:00,
2013-01-05 04:42:00,21.0,18.5,30.31,SSW,213,0.0,0.0,90,0.00,,,0.00,meteohub,2013-01-05 10:42:00,
2013-01-05 04:47:00,20.8,18.3,30.30,SSW,213,0.0,0.0,90,0.00,,,0.00,meteohub,2013-01-05 10:47:00,
2013-01-05 04:52:00,20.8,18.3,30.30,SSW,213,0.0,0.0,90,0.00,,,0.00,meteohub,2013-01-05 10:52:00,
2013-01-05 04:57:00,20.7,18.1,30.31,SSW,212,0.0,0.0,90,0.00,,,0.00,meteohub,2013-01-05 10:57:00,
2013-01-05 05:02:00,21.0,18.9,30.31,SSW,211,2.0,2.0,91,0.00,,,0.00,meteohub,2013-01-05 11:02:00,
2013-01-05 05:07:00,21.7,19.6,30.31,South,190,2.0,4.0,91,0.00,,,0.00,meteohub,2013-01-05 11:07:00,
2013-01-05 05:12:00,22.1,19.9,30.31,SSW,209,6.0,6.0,91,0.00,,,0.00,meteohub,2013-01-05 11:12:00,
2013-01-05 05:17:00,22.1,19.9,30.31,SSW,209,6.0,6.0,91,0.00,,,0.00,meteohub,2013-01-05 11:17:00,
2013-01-05 05:22:00,22.1,19.9,30.31,North,-999,-999.0,6.0,91,0.00,,,0.00,meteohub,2013-01-05 11:22:00,
2013-01-05 05:54:00,22.6,19.6,30.30,North,-999,-999.0,-999.0,88,0.00,,,0.00,meteohub,2013-01-05 11:54:00,
2013-01-05 05:59:00,23.0,19.9,30.30,North,-999,-999.0,-999.0,88,0.00,,,0.00,meteohub,2013-01-05 11:59:00,
2013-01-05 06:05:00,23.4,20.3,30.30,South,177,2.0,-999.0,88,0.00,,,0.00,meteohub,2013-01-05 12:05:00,
2013-01-05 06:10:00,23.5,20.3,30.30,SSW,198,0.0,4.0,87,0.00,,,0.00,meteohub,2013-01-05 12:10:00,
2013-01-05 06:15:00,23.5,20.3,30.30,SSW,195,0.0,5.0,87,0.00,,,0.00,meteohub,2013-01-05 12:15:00,
2013-01-05 06:20:00,23.4,20.1,30.30,SSE,165,1.0,4.0,87,0.00,,,0.00,meteohub,2013-01-05 12:20:00,
2013-01-05 06:25:00,23.4,20.1,30.30,SSE,162,1.0,4.0,87,0.00,,,0.00,meteohub,2013-01-05 12:25:00,
2013-01-05 06:30:00,23.4,19.8,30.31,SSE,166,0.0,4.0,86,0.00,,,0.00,meteohub,2013-01-05 12:30:00,
2013-01-05 06:35:00,23.2,19.6,30.31,South,175,2.0,4.0,86,0.00,,,0.00,meteohub,2013-01-05 12:35:00,
2013-01-05 06:40:00,23.2,19.9,30.31,SSE,165,1.0,6.0,87,0.00,,,0.00,meteohub,2013-01-05 12:40:00,
2013-01-05 06:45:00,23.2,19.9,30.30,SSE,163,2.0,6.0,87,0.00,,,0.00,meteohub,2013-01-05 12:45:00,
2013-01-05 06:50:00,23.2,19.9,30.30,SSW,194,2.0,6.0,87,0.00,,,0.00,meteohub,2013-01-05 12:50:00,
2013-01-05 06:55:00,23.0,19.4,30.30,South,175,0.0,6.0,86,0.00,,,0.00,meteohub,2013-01-05 12:55:00,
2013-01-05 07:01:00,23.0,19.4,30.30,SSE,165,2.0,5.0,86,0.00,,,0.00,meteohub,2013-01-05 13:01:00,
2013-01-05 07:06:00,22.8,19.2,30.31,South,188,5.0,5.0,86,0.00,,,0.00,meteohub,2013-01-05 13:06:00,
2013-01-05 07:11:00,23.0,19.8,30.30,South,188,0.0,6.0,87,0.00,,,0.00,meteohub,2013-01-05 13:11:00,
2013-01-05 07:16:00,22.8,19.2,30.30,SSE,167,2.0,6.0,86,0.00,,,0.00,meteohub,2013-01-05 13:16:00,
2013-01-05 07:21:00,22.8,19.2,30.31,South,180,3.0,6.0,86,0.00,,,0.00,meteohub,2013-01-05 13:21:00,
2013-01-05 07:26:00,22.8,19.2,30.31,SSE,166,3.0,6.0,86,0.00,,,0.00,meteohub,2013-01-05 13:26:00,
2013-01-05 07:31:00,22.8,19.2,30.32,South,186,2.0,6.0,86,0.00,,,0.00,meteohub,2013-01-05 13:31:00,
2013-01-05 07:36:00,22.8,19.6,30.32,South,183,4.0,6.0,87,0.00,,,0.00,meteohub,2013-01-05 13:36:00,
2013-01-05 07:41:00,23.0,19.4,30.32,South,170,2.0,6.0,86,0.00,,,0.00,meteohub,2013-01-05 13:41:00,
2013-01-05 07:46:00,22.8,19.2,30.31,SSE,159,1.0,7.0,86,0.00,,,0.00,meteohub,2013-01-05 13:46:00,
2013-01-05 07:51:00,23.0,19.8,30.30,South,169,0.0,7.0,87,0.00,,,0.00,meteohub,2013-01-05 13:51:00,
2013-01-05 07:57:00,23.4,20.1,30.30,South,177,1.0,5.0,87,0.00,,,0.00,meteohub,2013-01-05 13:57:00,
2013-01-05 08:02:00,23.5,19.9,30.30,SSE,159,2.0,5.0,86,0.00,,,0.00,meteohub,2013-01-05 14:02:00,
2013-01-05 08:07:00,23.7,20.1,30.30,SSE,166,3.0,5.0,86,0.00,,,0.00,meteohub,2013-01-05 14:07:00,
2013-01-05 08:12:00,24.3,20.5,30.30,South,182,4.0,5.0,85,0.00,,,0.00,meteohub,2013-01-05 14:12:00,
2013-01-05 08:17:00,24.4,20.7,30.30,SSW,204,1.0,7.0,85,0.00,,,0.00,meteohub,2013-01-05 14:17:00,
2013-01-05 08:22:00,24.6,20.5,30.30,South,176,0.0,7.0,84,0.00,,,0.00,meteohub,2013-01-05 14:22:00,
2013-01-05 08:27:00,24.6,20.5,30.30,SSE,167,1.0,7.0,84,0.00,,,0.00,meteohub,2013-01-05 14:27:00,
2013-01-05 08:32:00,24.8,21.0,30.30,SSW,195,5.0,6.0,85,0.00,,,0.00,meteohub,2013-01-05 14:32:00,
2013-01-05 08:37:00,25.2,21.0,30.30,South,189,2.0,6.0,84,0.00,,,0.00,meteohub,2013-01-05 14:37:00,
2013-01-05 08:42:00,25.5,21.4,30.31,SSW,194,2.0,8.0,84,0.00,,,0.00,meteohub,2013-01-05 14:42:00,
2013-01-05 08:47:00,25.9,21.4,30.31,SSW,203,5.0,8.0,83,0.00,,,0.00,meteohub,2013-01-05 14:47:00,
2013-01-05 08:52:00,26.1,21.6,30.31,South,173,3.0,7.0,83,0.00,,,0.00,meteohub,2013-01-05 14:52:00,
2013-01-05 08:57:00,26.2,21.7,30.30,South,188,1.0,8.0,83,0.00,,,0.00,meteohub,2013-01-05 14:57:00,
2013-01-05 09:02:00,26.4,21.9,30.30,SSW,195,1.0,8.0,83,0.00,,,0.00,meteohub,2013-01-05 15:02:00,
2013-01-05 09:07:00,26.8,22.3,30.30,SW,214,2.0,8.0,83,0.00,,,0.00,meteohub,2013-01-05 15:07:00,
2013-01-05 09:12:00,27.1,22.5,30.30,South,185,2.0,7.0,82,0.00,,,0.00,meteohub,2013-01-05 15:12:00,
2013-01-05 09:17:00,27.5,22.8,30.30,South,187,3.0,7.0,82,0.00,,,0.00,meteohub,2013-01-05 15:17:00,
2013-01-05 09:22:00,27.9,23.0,30.30,SW,217,0.0,7.0,82,0.00,,,0.00,meteohub,2013-01-05 15:22:00,
2013-01-05 09:27:00,28.6,23.7,30.30,SSW,195,0.0,7.0,82,0.00,,,0.00,meteohub,2013-01-05 15:27:00,
2013-01-05 09:32:00,29.1,24.1,30.30,South,188,3.0,6.0,81,0.00,,,0.00,meteohub,2013-01-05 15:32:00,
2013-01-05 09:37:00,30.2,24.4,30.31,SSW,192,2.0,7.0,79,0.00,,,0.00,meteohub,2013-01-05 15:37:00,
2013-01-05 09:42:00,30.9,24.6,30.31,South,171,4.0,13.0,77,0.00,,,0.00,meteohub,2013-01-05 15:42:00,
2013-01-05 09:47:00,31.5,24.8,30.30,SW,223,7.0,13.0,76,0.00,,,0.00,meteohub,2013-01-05 15:47:00,
2013-01-05 09:52:00,31.3,24.3,30.30,WSW,244,4.0,13.0,75,0.00,,,0.00,meteohub,2013-01-05 15:52:00,
2013-01-05 09:57:00,30.9,24.3,30.30,WSW,238,1.0,10.0,76,0.00,,,0.00,meteohub,2013-01-05 15:57:00,
2013-01-05 10:02:00,30.9,24.3,30.30,SSW,194,10.0,10.0,76,0.00,,,0.00,meteohub,2013-01-05 16:02:00,
2013-01-05 10:07:00,30.7,24.1,30.30,SW,217,5.0,12.0,76,0.00,,,0.00,meteohub,2013-01-05 16:07:00,
2013-01-05 10:12:00,30.7,24.1,30.30,SSW,207,9.0,12.0,76,0.00,,,0.00,meteohub,2013-01-05 16:12:00,
2013-01-05 10:17:00,30.9,24.6,30.29,South,186,4.0,12.0,77,0.00,,,0.00,meteohub,2013-01-05 16:17:00,
2013-01-05 10:22:00,31.3,24.6,30.29,SW,225,1.0,10.0,76,0.00,,,0.00,meteohub,2013-01-05 16:22:00,
2013-01-05 10:27:00,31.5,24.4,30.29,SW,215,7.0,9.0,75,0.00,,,0.00,meteohub,2013-01-05 16:27:00,
2013-01-05 10:32:00,31.5,24.4,30.29,SSW,200,4.0,11.0,75,0.00,,,0.00,meteohub,2013-01-05 16:32:00,
2013-01-05 10:37:00,31.8,24.8,30.28,South,187,8.0,11.0,75,0.00,,,0.00,meteohub,2013-01-05 16:37:00,
2013-01-05 10:42:00,32.4,25.3,30.28,SW,236,4.0,9.0,75,0.00,,,0.00,meteohub,2013-01-05 16:42:00,
2013-01-05 10:47:00,32.7,25.3,30.28,SSW,203,0.0,10.0,74,0.00,,,0.00,meteohub,2013-01-05 16:47:00,
2013-01-05 10:52:00,33.1,25.3,30.28,SW,214,2.0,10.0,73,0.00,,,0.00,meteohub,2013-01-05 16:52:00,
2013-01-05 10:57:00,33.3,25.2,30.28,South,186,5.0,8.0,72,0.00,,,0.00,meteohub,2013-01-05 16:57:00,
2013-01-05 11:02:00,33.6,25.9,30.28,SSW,209,4.0,8.0,73,0.00,,,0.00,meteohub,2013-01-05 17:02:00,
2013-01-05 11:07:00,34.0,25.9,30.27,SSW,202,6.0,8.0,72,0.00,,,0.00,meteohub,2013-01-05 17:07:00,
2013-01-05 11:12:00,34.2,25.7,30.27,South,189,6.0,9.0,71,0.00,,,0.00,meteohub,2013-01-05 17:12:00,
2013-01-05 11:17:00,34.2,25.7,30.27,SSW,194,6.0,10.0,71,0.00,,,0.00,meteohub,2013-01-05 17:17:00,
2013-01-05 11:22:00,34.2,25.7,30.27,SW,229,9.0,12.0,71,0.00,,,0.00,meteohub,2013-01-05 17:22:00,
2013-01-05 11:27:00,34.5,26.1,30.26,South,183,4.0,12.0,71,0.00,,,0.00,meteohub,2013-01-05 17:27:00,
2013-01-05 11:32:00,34.7,25.9,30.26,SSW,210,8.0,12.0,70,0.00,,,0.00,meteohub,2013-01-05 17:32:00,
2013-01-05 11:37:00,34.5,25.7,30.26,SW,222,7.0,11.0,70,0.00,,,0.00,meteohub,2013-01-05 17:37:00,
2013-01-05 11:42:00,34.5,26.1,30.25,SSW,196,8.0,11.0,71,0.00,,,0.00,meteohub,2013-01-05 17:42:00,
2013-01-05 11:47:00,34.5,26.1,30.25,SSW,192,1.0,11.0,71,0.00,,,0.00,meteohub,2013-01-05 17:47:00,
2013-01-05 11:52:00,34.9,26.4,30.25,SW,233,0.0,8.0,71,0.00,,,0.00,meteohub,2013-01-05 17:52:00,
2013-01-05 11:57:00,35.2,26.8,30.25,SW,236,3.0,10.0,71,0.00,,,0.00,meteohub,2013-01-05 17:57:00,
2013-01-05 12:02:00,35.1,26.6,30.24,SSW,192,5.0,13.0,71,0.00,,,0.00,meteohub,2013-01-05 18:02:00,
2013-01-05 12:07:00,35.2,26.8,30.24,South,178,9.0,13.0,71,0.00,,,0.00,meteohub,2013-01-05 18:07:00,
2013-01-05 12:12:00,35.4,27.0,30.23,SSW,200,6.0,13.0,71,0.00,,,0.00,meteohub,2013-01-05 18:12:00,
2013-01-05 12:17:00,35.4,27.0,30.23,SSE,165,7.0,12.0,71,0.00,,,0.00,meteohub,2013-01-05 18:17:00,
2013-01-05 12:22:00,35.2,26.8,30.23,SSW,202,8.0,12.0,71,0.00,,,0.00,meteohub,2013-01-05 18:22:00,
2013-01-05 12:27:00,35.2,27.1,30.23,South,182,1.0,11.0,72,0.00,,,0.00,meteohub,2013-01-05 18:27:00,
2013-01-05 12:32:00,35.2,27.1,30.22,SSW,194,11.0,11.0,72,0.00,,,0.00,meteohub,2013-01-05 18:32:00,
2013-01-05 12:37:00,35.2,27.1,30.22,SSW,213,6.0,11.0,72,0.00,,,0.00,meteohub,2013-01-05 18:37:00,
2013-01-05 12:42:00,35.1,27.0,30.21,SSE,165,1.0,11.0,72,0.00,,,0.00,meteohub,2013-01-05 18:42:00,
2013-01-05 12:47:00,35.1,27.3,30.21,SW,215,6.0,11.0,73,0.00,,,0.00,meteohub,2013-01-05 18:47:00,
2013-01-05 12:52:00,35.1,27.3,30.21,SSW,193,6.0,9.0,73,0.00,,,0.00,meteohub,2013-01-05 18:52:00,
2013-01-05 12:57:00,35.2,27.5,30.20,SW,231,4.0,9.0,73,0.00,,,0.00,meteohub,2013-01-05 18:57:00,
2013-01-05 13:02:00,35.2,27.5,30.20,SSW,202,3.0,9.0,73,0.00,,,0.00,meteohub,2013-01-05 19:02:00,
2013-01-05 13:07:00,35.4,27.7,30.21,SW,223,5.0,9.0,73,0.00,,,0.00,meteohub,2013-01-05 19:07:00,
2013-01-05 13:12:00,35.4,27.7,30.22,SW,229,7.0,9.0,73,0.00,,,0.00,meteohub,2013-01-05 19:12:00,
2013-01-05 13:17:00,35.1,27.9,30.22,WSW,250,8.0,11.0,75,0.00,,,0.00,meteohub,2013-01-05 19:17:00,
2013-01-05 13:22:00,34.5,28.0,30.22,WSW,242,2.0,13.0,77,0.00,,,0.00,meteohub,2013-01-05 19:22:00,
2013-01-05 13:27:00,34.2,28.4,30.22,SW,223,10.0,13.0,79,0.00,,,0.00,meteohub,2013-01-05 19:27:00,
2013-01-05 13:32:00,34.0,28.2,30.22,SSW,205,4.0,13.0,79,0.00,,,0.00,meteohub,2013-01-05 19:32:00,
2013-01-05 13:37:00,34.0,28.2,30.21,South,188,4.0,12.0,79,0.00,,,0.00,meteohub,2013-01-05 19:37:00,
2013-01-05 13:42:00,33.8,28.9,30.21,South,187,3.0,10.0,82,0.00,,,0.00,meteohub,2013-01-05 19:42:00,
2013-01-05 13:47:00,33.6,28.8,30.21,WSW,242,6.0,9.0,82,0.00,,,0.00,meteohub,2013-01-05 19:47:00,
2013-01-05 13:52:00,33.8,29.5,30.21,SW,235,7.0,8.0,84,0.00,,,0.00,meteohub,2013-01-05 19:52:00,
2013-01-05 13:57:00,33.8,29.8,30.21,WSW,252,0.0,8.0,85,0.00,,,0.00,meteohub,2013-01-05 19:57:00,
2013-01-05 14:02:00,34.0,30.0,30.21,SW,223,1.0,8.0,85,0.00,,,0.00,meteohub,2013-01-05 20:02:00,
2013-01-05 14:07:00,34.2,30.2,30.21,SW,223,3.0,10.0,85,0.00,,,0.00,meteohub,2013-01-05 20:07:00,
2013-01-05 14:12:00,34.2,30.2,30.21,SSW,194,2.0,10.0,85,0.00,,,0.00,meteohub,2013-01-05 20:12:00,
2013-01-05 14:17:00,34.2,30.4,30.20,SW,236,3.0,8.0,86,0.00,,,0.00,meteohub,2013-01-05 20:17:00,
2013-01-05 14:22:00,34.2,30.4,30.20,WSW,244,2.0,8.0,86,0.00,,,0.00,meteohub,2013-01-05 20:22:00,
2013-01-05 14:27:00,34.2,30.7,30.20,SW,223,5.0,8.0,87,0.01,,,0.01,meteohub,2013-01-05 20:27:00,
2013-01-05 14:32:00,34.2,30.7,30.19,WSW,241,1.0,7.0,87,0.01,,,0.01,meteohub,2013-01-05 20:32:00,
2013-01-05 14:37:00,34.2,30.7,30.19,SSW,211,2.0,7.0,87,0.01,,,0.01,meteohub,2013-01-05 20:37:00,
2013-01-05 14:42:00,34.2,30.7,30.19,SSW,211,3.0,7.0,87,0.01,,,0.01,meteohub,2013-01-05 20:42:00,
2013-01-05 14:47:00,34.2,30.7,30.19,SW,225,2.0,7.0,87,0.01,,,0.01,meteohub,2013-01-05 20:47:00,
2013-01-05 14:52:00,34.3,30.9,30.19,South,190,6.0,8.0,87,0.01,,,0.01,meteohub,2013-01-05 20:52:00,
2013-01-05 14:57:00,34.3,30.9,30.20,SSW,196,4.0,9.0,87,0.01,,,0.01,meteohub,2013-01-05 20:57:00,
2013-01-05 15:02:00,34.3,30.9,30.19,SSW,201,6.0,9.0,87,0.01,,,0.01,meteohub,2013-01-05 21:02:00,
2013-01-05 15:07:00,34.5,31.1,30.19,SSW,208,1.0,9.0,87,0.01,,,0.01,meteohub,2013-01-05 21:07:00,
2013-01-05 15:12:00,34.7,31.3,30.19,SSW,205,7.0,9.0,87,0.01,,,0.01,meteohub,2013-01-05 21:12:00,
2013-01-05 15:17:00,34.9,31.5,30.19,SSW,196,7.0,9.0,87,0.01,,,0.01,meteohub,2013-01-05 21:17:00,
2013-01-05 15:22:00,34.7,31.3,30.19,South,188,5.0,8.0,87,0.00,,,0.01,meteohub,2013-01-05 21:22:00,
2013-01-05 15:27:00,34.9,31.5,30.18,South,186,6.0,8.0,87,0.00,,,0.01,meteohub,2013-01-05 21:27:00,
2013-01-05 15:32:00,34.9,31.5,30.19,South,178,1.0,9.0,87,0.00,,,0.01,meteohub,2013-01-05 21:32:00,
2013-01-05 15:37:00,34.7,31.3,30.18,SSW,198,3.0,9.0,87,0.00,,,0.01,meteohub,2013-01-05 21:37:00,
2013-01-05 15:42:00,34.7,31.3,30.19,SSW,200,5.0,10.0,87,0.00,,,0.01,meteohub,2013-01-05 21:42:00,
2013-01-05 15:47:00,34.9,31.5,30.19,South,180,4.0,10.0,87,0.00,,,0.01,meteohub,2013-01-05 21:47:00,
2013-01-05 15:52:00,34.7,31.3,30.18,SSW,204,5.0,10.0,87,0.00,,,0.01,meteohub,2013-01-05 21:52:00,
2013-01-05 15:57:00,34.7,31.3,30.18,South,190,5.0,9.0,87,0.00,,,0.01,meteohub,2013-01-05 21:57:00,
2013-01-05 16:02:00,34.9,31.5,30.18,SSE,167,0.0,9.0,87,0.00,,,0.01,meteohub,2013-01-05 22:02:00,
2013-01-05 16:07:00,34.9,31.5,30.17,SE,142,2.0,8.0,87,0.00,,,0.01,meteohub,2013-01-05 22:07:00,
2013-01-05 16:12:00,34.9,31.1,30.17,SSE,153,3.0,8.0,86,0.00,,,0.01,meteohub,2013-01-05 22:12:00,
2013-01-05 16:17:00,34.9,31.1,30.17,SSE,163,1.0,8.0,86,0.00,,,0.01,meteohub,2013-01-05 22:17:00,
2013-01-05 16:22:00,34.7,30.9,30.17,South,171,5.0,8.0,86,0.00,,,0.01,meteohub,2013-01-05 22:22:00,
2013-01-05 16:27:00,34.7,30.7,30.17,South,177,2.0,8.0,85,0.00,,,0.01,meteohub,2013-01-05 22:27:00,
2013-01-05 16:32:00,34.7,30.7,30.16,South,177,6.0,8.0,85,0.00,,,0.01,meteohub,2013-01-05 22:32:00,
2013-01-05 16:37:00,34.7,30.4,30.16,SSE,167,8.0,11.0,84,0.00,,,0.01,meteohub,2013-01-05 22:37:00,
2013-01-05 16:42:00,34.5,30.2,30.16,South,175,1.0,11.0,84,0.00,,,0.01,meteohub,2013-01-05 22:42:00,
2013-01-05 16:47:00,34.5,30.2,30.17,South,181,1.0,8.0,84,0.00,,,0.01,meteohub,2013-01-05 22:47:00,
2013-01-05 16:52:00,34.5,30.2,30.17,South,178,6.0,8.0,84,0.00,,,0.01,meteohub,2013-01-05 22:52:00,
2013-01-05 16:57:00,34.7,30.0,30.17,SSW,201,5.0,8.0,83,0.00,,,0.01,meteohub,2013-01-05 22:57:00,
2013-01-05 17:02:00,34.7,30.0,30.16,South,170,2.0,8.0,83,0.00,,,0.01,meteohub,2013-01-05 23:02:00,
2013-01-05 17:07:00,34.5,29.8,30.16,South,184,6.0,8.0,83,0.00,,,0.01,meteohub,2013-01-05 23:07:00,
2013-01-05 17:12:00,34.5,29.8,30.16,SSW,204,4.0,8.0,83,0.00,,,0.01,meteohub,2013-01-05 23:12:00,
2013-01-05 17:17:00,34.5,29.7,30.16,SE,136,5.0,7.0,82,0.00,,,0.01,meteohub,2013-01-05 23:17:00,
2013-01-05 17:22:00,34.5,29.7,30.16,South,175,2.0,8.0,82,0.00,,,0.01,meteohub,2013-01-05 23:22:00,
2013-01-05 17:27:00,34.5,29.7,30.16,South,186,7.0,10.0,82,0.00,,,0.01,meteohub,2013-01-05 23:27:00,
2013-01-05 17:32:00,34.5,29.3,30.16,South,173,4.0,10.0,81,0.00,,,0.01,meteohub,2013-01-05 23:32:00,
2013-01-05 17:37:00,34.5,28.9,30.17,South,190,5.0,10.0,80,0.00,,,0.01,meteohub,2013-01-05 23:37:00,
2013-01-05 17:42:00,34.5,28.9,30.17,South,175,5.0,10.0,80,0.00,,,0.01,meteohub,2013-01-05 23:42:00,
2013-01-05 17:47:00,34.5,28.8,30.17,South,188,4.0,10.0,79,0.00,,,0.01,meteohub,2013-01-05 23:47:00,
2013-01-05 17:52:00,34.5,28.8,30.16,SSE,163,5.0,9.0,79,0.00,,,0.01,meteohub,2013-01-05 23:52:00,
2013-01-05 17:57:00,34.5,28.8,30.16,South,169,4.0,11.0,79,0.00,,,0.01,meteohub,2013-01-05 23:57:00,
2013-01-05 18:02:00,34.5,28.4,30.16,SSW,200,2.0,11.0,78,0.00,,,0.01,meteohub,2013-01-06 00:02:00,
2013-01-05 18:07:00,34.5,28.8,30.17,SSW,199,8.0,11.0,79,0.00,,,0.01,meteohub,2013-01-06 00:07:00,
2013-01-05 18:12:00,34.5,28.8,30.16,SSW,203,4.0,9.0,79,0.00,,,0.01,meteohub,2013-01-06 00:12:00,
2013-01-05 18:17:00,34.5,28.4,30.16,SSE,155,4.0,9.0,78,0.00,,,0.01,meteohub,2013-01-06 00:17:00,
2013-01-05 18:22:00,34.5,28.8,30.17,South,187,9.0,9.0,79,0.00,,,0.01,meteohub,2013-01-06 00:22:00,
2013-01-05 18:27:00,34.7,28.6,30.16,SSW,202,0.0,9.0,78,0.00,,,0.01,meteohub,2013-01-06 00:27:00,
2013-01-05 18:32:00,34.7,28.6,30.16,South,183,0.0,9.0,78,0.00,,,0.01,meteohub,2013-01-06 00:32:00,
2013-01-05 18:37:00,34.9,28.8,30.17,SSW,198,3.0,9.0,78,0.00,,,0.01,meteohub,2013-01-06 00:37:00,
2013-01-05 18:42:00,34.9,28.8,30.16,South,178,2.0,12.0,78,0.00,,,0.01,meteohub,2013-01-06 00:42:00,
2013-01-05 18:47:00,34.9,28.8,30.15,SSE,155,6.0,12.0,78,0.00,,,0.01,meteohub,2013-01-06 00:47:00,
2013-01-05 18:52:00,34.9,28.8,30.16,South,182,2.0,12.0,78,0.00,,,0.01,meteohub,2013-01-06 00:52:00,
2013-01-05 18:57:00,34.9,28.8,30.16,South,182,4.0,9.0,78,0.00,,,0.01,meteohub,2013-01-06 00:57:00,
2013-01-05 19:02:00,34.9,28.8,30.16,SSW,195,2.0,11.0,78,0.00,,,0.01,meteohub,2013-01-06 01:02:00,
2013-01-05 19:07:00,34.9,28.8,30.16,South,175,2.0,11.0,78,0.00,,,0.01,meteohub,2013-01-06 01:07:00,
2013-01-05 19:12:00,34.9,29.1,30.16,South,187,4.0,11.0,79,0.00,,,0.01,meteohub,2013-01-06 01:12:00,
2013-01-05 19:17:00,34.9,29.1,30.16,South,181,5.0,11.0,79,0.00,,,0.01,meteohub,2013-01-06 01:17:00,
2013-01-05 19:22:00,34.9,29.1,30.16,South,182,4.0,11.0,79,0.00,,,0.01,meteohub,2013-01-06 01:22:00,
2013-01-05 19:27:00,34.9,29.3,30.16,South,186,7.0,11.0,80,0.00,,,0.01,meteohub,2013-01-06 01:27:00,
2013-01-05 19:32:00,35.1,29.5,30.16,SSW,211,5.0,15.0,80,0.00,,,0.01,meteohub,2013-01-06 01:32:00,
2013-01-05 19:37:00,35.2,29.7,30.16,South,190,5.0,15.0,80,0.00,,,0.01,meteohub,2013-01-06 01:37:00,
2013-01-05 19:42:00,35.2,29.7,30.16,SSW,205,11.0,15.0,80,0.00,,,0.01,meteohub,2013-01-06 01:42:00,
2013-01-05 19:48:00,35.4,30.2,30.15,South,186,7.0,14.0,81,0.00,,,0.01,meteohub,2013-01-06 01:48:00,
2013-01-05 19:53:00,35.6,30.4,30.15,South,190,2.0,15.0,81,0.00,,,0.01,meteohub,2013-01-06 01:53:00,
2013-01-05 19:58:00,35.8,30.6,30.15,South,184,5.0,15.0,81,0.00,,,0.01,meteohub,2013-01-06 01:58:00,
2013-01-05 20:03:00,35.8,30.6,30.15,South,184,8.0,15.0,81,0.00,,,0.01,meteohub,2013-01-06 02:03:00,
2013-01-05 20:08:00,35.8,30.6,30.15,SSW,206,6.0,14.0,81,0.00,,,0.01,meteohub,2013-01-06 02:08:00,
2013-01-05 20:13:00,35.8,30.6,30.14,SSW,196,4.0,14.0,81,0.00,,,0.01,meteohub,2013-01-06 02:13:00,
2013-01-05 20:18:00,35.8,30.7,30.14,SW,216,5.0,15.0,82,0.00,,,0.01,meteohub,2013-01-06 02:18:00,
2013-01-05 20:23:00,35.8,30.7,30.14,South,188,7.0,15.0,82,0.00,,,0.01,meteohub,2013-01-06 02:23:00,
2013-01-05 20:28:00,35.8,30.7,30.14,SSW,206,5.0,18.0,82,0.00,,,0.01,meteohub,2013-01-06 02:28:00,
2013-01-05 20:33:00,35.8,31.1,30.14,South,179,10.0,18.0,83,0.00,,,0.01,meteohub,2013-01-06 02:33:00,
2013-01-05 20:38:00,35.8,31.1,30.14,SSW,202,7.0,18.0,83,0.00,,,0.01,meteohub,2013-01-06 02:38:00,
2013-01-05 20:43:00,35.6,30.9,30.14,SSW,206,15.0,18.0,83,0.00,,,0.01,meteohub,2013-01-06 02:43:00,
2013-01-05 20:48:00,35.6,30.9,30.14,SW,219,7.0,18.0,83,0.00,,,0.01,meteohub,2013-01-06 02:48:00,
2013-01-05 20:53:00,35.8,31.1,30.14,South,175,11.0,18.0,83,0.00,,,0.01,meteohub,2013-01-06 02:53:00,
2013-01-05 20:58:00,35.8,31.1,30.14,South,190,6.0,15.0,83,0.00,,,0.01,meteohub,2013-01-06 02:58:00,
2013-01-05 21:03:00,35.6,31.3,30.14,SSW,212,4.0,21.0,84,0.00,,,0.01,meteohub,2013-01-06 03:03:00,
2013-01-05 21:09:00,35.6,31.3,30.14,SSW,209,10.0,21.0,84,0.00,,,0.01,meteohub,2013-01-06 03:09:00,
2013-01-05 21:14:00,35.6,31.3,30.13,South,186,14.0,14.0,84,0.00,,,0.01,meteohub,2013-01-06 03:14:00,
2013-01-05 21:19:00,35.6,31.3,30.13,SW,221,7.0,13.0,84,0.00,,,0.01,meteohub,2013-01-06 03:19:00,
2013-01-05 21:24:00,35.8,31.5,30.13,SSW,212,5.0,14.0,84,0.00,,,0.01,meteohub,2013-01-06 03:24:00,
2013-01-05 21:29:00,35.8,31.5,30.12,SW,221,6.0,14.0,84,0.00,,,0.01,meteohub,2013-01-06 03:29:00,
2013-01-05 21:34:00,35.8,31.5,30.12,SSW,203,8.0,14.0,84,0.00,,,0.01,meteohub,2013-01-06 03:34:00,
2013-01-05 21:39:00,35.8,31.5,30.12,SSE,159,7.0,14.0,84,0.00,,,0.01,meteohub,2013-01-06 03:39:00,
2013-01-05 21:44:00,35.8,31.1,30.12,South,191,8.0,13.0,83,0.00,,,0.01,meteohub,2013-01-06 03:44:00,
2013-01-05 21:49:00,35.8,31.1,30.12,SW,223,7.0,13.0,83,0.00,,,0.01,meteohub,2013-01-06 03:49:00,
2013-01-05 21:54:00,35.8,31.1,30.12,SSW,202,4.0,13.0,83,0.00,,,0.01,meteohub,2013-01-06 03:54:00,
2013-01-05 21:59:00,35.8,31.1,30.12,SSW,209,5.0,14.0,83,0.00,,,0.01,meteohub,2013-01-06 03:59:00,
2013-01-05 22:04:00,35.8,31.1,30.12,South,174,6.0,14.0,83,0.00,,,0.01,meteohub,2013-01-06 04:04:00,
2013-01-05 22:09:00,35.8,31.1,30.12,SSW,210,8.0,14.0,83,0.00,,,0.01,meteohub,2013-01-06 04:09:00,
2013-01-05 22:14:00,36.0,31.3,30.12,SSW,213,2.0,14.0,83,0.00,,,0.01,meteohub,2013-01-06 04:14:00,
2013-01-05 22:20:00,35.8,31.1,30.12,SW,221,1.0,14.0,83,0.00,,,0.01,meteohub,2013-01-06 04:20:00,
2013-01-05 22:25:00,36.0,31.3,30.11,SSE,161,5.0,14.0,83,0.00,,,0.01,meteohub,2013-01-06 04:25:00,
2013-01-05 22:30:00,36.0,30.9,30.11,SSW,211,2.0,14.0,82,0.00,,,0.01,meteohub,2013-01-06 04:30:00,
2013-01-05 22:35:00,36.0,30.9,30.11,South,178,8.0,13.0,82,0.00,,,0.01,meteohub,2013-01-06 04:35:00,
2013-01-05 22:40:00,36.1,31.1,30.11,SSW,197,8.0,12.0,82,0.00,,,0.01,meteohub,2013-01-06 04:40:00,
2013-01-05 22:45:00,36.1,31.1,30.10,SSW,203,4.0,13.0,82,0.00,,,0.01,meteohub,2013-01-06 04:45:00,
2013-01-05 22:50:00,36.1,31.1,30.10,WSW,242,11.0,13.0,82,0.00,,,0.01,meteohub,2013-01-06 04:50:00,
2013-01-05 22:55:00,36.1,31.1,30.10,SSW,205,7.0,13.0,82,0.00,,,0.01,meteohub,2013-01-06 04:55:00,
2013-01-05 23:01:00,36.1,31.1,30.10,SSW,194,1.0,13.0,82,0.00,,,0.01,meteohub,2013-01-06 05:01:00,
2013-01-05 23:02:00,36.1,31.1,30.10,South,190,8.0,12.0,82,0.00,,,0.01,meteohub,2013-01-06 05:02:00,
2013-01-05 23:03:00,36.1,31.1,30.10,SSW,194,7.0,12.0,82,0.00,,,0.01,meteohub,2013-01-06 05:03:00,
2013-01-05 23:08:00,36.1,31.1,30.10,SSW,199,9.0,11.0,82,0.00,,,0.01,meteohub,2013-01-06 05:08:00,
2013-01-05 23:13:00,36.1,30.9,30.09,SSW,193,10.0,11.0,81,0.00,,,0.01,meteohub,2013-01-06 05:13:00,
2013-01-05 23:18:00,36.1,30.9,30.09,SW,217,9.0,11.0,81,0.00,,,0.01,meteohub,2013-01-06 05:18:00,
2013-01-05 23:23:00,36.1,30.9,30.09,SW,220,6.0,13.0,81,0.00,,,0.01,meteohub,2013-01-06 05:23:00,
2013-01-05 23:28:00,36.1,30.9,30.09,SSE,164,2.0,18.0,81,0.00,,,0.01,meteohub,2013-01-06 05:28:00,
2013-01-05 23:33:00,36.1,30.9,30.09,SSW,210,8.0,18.0,81,0.00,,,0.01,meteohub,2013-01-06 05:33:00,
2013-01-05 23:38:00,36.1,30.9,30.08,South,191,7.0,18.0,81,0.00,,,0.01,meteohub,2013-01-06 05:38:00,
2013-01-05 23:43:00,36.3,31.1,30.08,SW,216,9.0,14.0,81,0.00,,,0.01,meteohub,2013-01-06 05:43:00,
2013-01-05 23:48:00,36.3,30.7,30.08,SSW,211,5.0,18.0,80,0.00,,,0.01,meteohub,2013-01-06 05:48:00,
2013-01-05 23:54:00,36.3,30.7,30.08,South,190,10.0,18.0,80,0.00,,,0.01,meteohub,2013-01-06 05:54:00,
2013-01-05 23:59:00,36.3,30.7,30.07,South,173,11.0,18.0,80,0.00,,,0.01,meteohub,2013-01-06 05:59:00,